Time;durP1;ratioP1;P1;durP2;ratioP2;P2;SDS_P1;SDS_P2;PMS_P1;PMS_P2;Temp;Humidity;BMP_temperature;BMP_pressure;BME280_temperature;BME280_humidity;BME280_pressure;Samples;Min_cycle;Max_cycle;Signal;HPM_P1;HPM_P2
2022/11/12 00:06:18;;;;;;;0.90;0.80;;;;;;;17.16;100.00;102796.75;20478496;28;20051;-90
2022/11/12 00:16:38;;;;;;;0.70;0.70;;;;;;;16.95;100.00;102772.75;20409980;28;20044;-88
2022/11/12 00:26:58;;;;;;;0.70;0.70;;;;;;;17.15;100.00;102804.91;20424559;28;20043;-90
2022/11/12 00:37:19;;;;;;;0.80;0.80;;;;;;;17.13;100.00;102815.75;20397001;28;20078;-89
2022/11/12 00:47:39;;;;;;;0.70;0.70;;;;;;;17.14;100.00;102822.03;20397197;28;20138;-89
2022/11/12 00:57:59;;;;;;;0.60;0.60;;;;;;;17.14;100.00;102819.34;20395366;28;20051;-89
2022/11/12 01:08:19;;;;;;;0.60;0.60;;;;;;;16.73;100.00;102756.03;20470904;28;20560;-89
2022/11/12 01:18:40;;;;;;;1.00;0.70;;;;;;;17.14;100.00;102824.72;20475198;28;20051;-88
2022/11/12 01:29:00;;;;;;;1.20;0.82;;;;;;;17.13;100.00;102823.84;20474298;28;20074;-88
2022/11/12 01:39:20;;;;;;;0.90;0.77;;;;;;;17.12;100.00;102816.72;20486216;28;20066;-90
2022/11/12 01:49:55;;;;;;;0.70;0.70;;;;;;;16.84;100.00;102769.78;20472544;28;20047;-89
2022/11/12 02:00:16;;;;;;;0.73;0.73;;;;;;;17.03;100.00;102774.16;20497964;28;20055;-88
2022/11/12 02:10:38;;;;;;;0.75;0.70;;;;;;;17.12;100.00;102799.72;20471275;28;20416;-89
2022/11/12 02:21:02;;;;;;;0.73;0.73;;;;;;;16.80;100.00;102746.69;20483731;28;20412;-88
2022/11/12 02:31:22;;;;;;;0.70;0.68;;;;;;;16.91;100.00;102754.16;20469879;28;20060;-89
2022/11/12 02:41:43;;;;;;;0.70;0.70;;;;;;;17.10;100.00;102781.81;20468937;28;20500;-89
2022/11/12 02:52:03;;;;;;;0.60;0.60;;;;;;;17.10;100.00;102797.97;20470695;28;20047;-89
2022/11/12 03:02:23;;;;;;;0.65;0.65;;;;;;;16.99;100.00;102786.91;20482150;28;20043;-88
2022/11/12 03:12:43;;;;;;;0.77;0.70;;;;;;;17.09;100.00;102785.47;20483957;28;20066;-89
2022/11/12 03:23:06;;;;;;;1.25;0.90;;;;;;;17.08;100.00;102794.50;20482595;28;20091;-89
2022/11/12 03:33:26;;;;;;;0.60;0.60;;;;;;;16.88;100.00;102755.22;20481711;28;20043;-89
2022/11/12 03:43:46;;;;;;;0.70;0.70;;;;;;;17.08;100.00;102791.81;20481777;28;20142;-90
2022/11/12 03:54:06;;;;;;;0.60;0.60;;;;;;;17.06;100.00;102801.78;20480657;28;20047;-89
2022/11/12 04:08:34;;;;;;;0.88;0.75;;;;;;;17.07;100.00;102791.88;20477639;28;20055;-90
2022/11/12 04:15:06;;;;;;;0.70;0.70;;;;;;;17.06;100.00;102800.91;20479119;28;20059;-90
2022/11/12 04:36:05;;;;;;;0.50;0.50;;;;;;;16.63;100.00;102731.47;20476873;28;20154;-90
2022/11/12 04:46:25;;;;;;;0.70;0.57;;;;;;;17.04;100.00;102802.81;20475448;28;20051;-89
2022/11/12 04:56:45;;;;;;;0.80;0.70;;;;;;;17.04;100.00;102802.81;20475189;28;20078;-89
2022/11/12 05:07:05;;;;;;;0.80;0.80;;;;;;;17.03;100.00;102815.41;20474941;28;20047;-90
2022/11/12 05:17:26;;;;;;;0.60;0.60;;;;;;;17.02;100.00;102820.88;20474118;28;20535;-89
2022/11/12 05:27:45;;;;;;;0.80;0.80;;;;;;;16.96;100.00;102796.00;20474322;28;20098;-90
2022/11/12 05:38:05;;;;;;;0.65;0.60;;;;;;;16.75;100.00;102770.25;20470782;28;20051;-88
2022/11/12 05:48:25;;;;;;;0.60;0.60;;;;;;;17.01;100.00;102809.22;20480757;28;20133;-89
2022/11/12 05:58:46;;;;;;;0.82;0.80;;;;;;;17.00;100.00;102812.00;20467702;28;20527;-90
2022/11/12 06:09:07;;;;;;;0.68;0.68;;;;;;;16.99;100.00;102810.28;20479242;28;20047;-90
2022/11/12 06:19:27;;;;;;;0.77;0.68;;;;;;;16.86;100.00;102784.00;20476832;28;20043;-89
2022/11/12 06:29:47;;;;;;;2.38;1.00;;;;;;;16.86;100.00;102777.75;20488166;28;20043;-90
2022/11/12 06:40:07;;;;;;;4.78;1.85;;;;;;;16.91;100.00;102773.88;20507855;28;20051;-88
2022/11/12 06:50:27;;;;;;;3.65;1.80;;;;;;;16.96;100.00;102755.66;20483728;28;20408;-88
2022/11/12 07:00:47;;;;;;;2.30;1.90;;;;;;;16.93;100.00;102785.41;20478934;28;20047;-87
2022/11/12 07:11:08;;;;;;;3.17;1.92;;;;;;;17.20;100.00;102819.00;20479906;28;20040;-88
2022/11/12 07:21:28;;;;;;;3.05;2.22;;;;;;;17.24;100.00;102816.06;20469922;28;20095;-87
2022/11/12 07:43:44;;;;;;;3.10;2.30;;;;;;;17.26;98.38;102845.56;20474036;28;20059;-87
2022/11/12 07:54:04;;;;;;;2.78;2.10;;;;;;;17.29;97.27;102860.69;20467477;28;20047;-88
2022/11/12 08:04:24;;;;;;;3.05;2.17;;;;;;;17.29;96.00;102872.31;20485009;28;20051;-86
2022/11/12 08:14:44;;;;;;;3.22;2.35;;;;;;;17.30;93.30;102881.28;20456871;28;20047;-86
2022/11/12 08:25:05;;;;;;;3.15;2.40;;;;;;;17.32;91.38;102887.44;20462607;28;20048;-94
2022/11/12 08:35:26;;;;;;;3.40;2.33;;;;;;;17.34;91.97;102897.16;20480912;28;20051;-89
2022/11/12 08:45:47;;;;;;;5.30;2.30;;;;;;;17.39;97.11;102897.78;20472021;28;20047;-85
2022/11/12 08:56:07;;;;;;;4.20;2.00;;;;;;;17.42;100.00;102885.97;20455903;28;20181;-86
2022/11/12 09:06:27;;;;;;;6.57;2.60;;;;;;;17.27;100.00;102867.97;20459300;28;20055;-87
2022/11/12 09:16:47;;;;;;;21.95;3.22;;;;;;;17.36;100.00;102889.00;20457376;28;20047;-88
2022/11/12 09:27:07;;;;;;;4.70;2.80;;;;;;;17.43;100.00;102901.19;20485751;28;20055;-88
2022/11/12 09:37:27;;;;;;;6.57;2.35;;;;;;;17.39;100.00;102895.06;20478363;28;20066;-86
2022/11/12 09:47:53;;;;;;;3.60;2.05;;;;;;;17.35;100.00;102879.19;20461306;28;20043;-87
2022/11/12 09:58:14;;;;;;;;;;;;;;;17.32;100.00;102882.06;20458148;28;20043;-86
2022/11/12 10:08:39;;;;;;;2.92;1.83;;;;;;;17.27;100.00;102890.38;20481212;28;20001;-87
2022/11/12 10:19:11;;;;;;;3.45;2.10;;;;;;;17.23;100.00;102900.44;20501388;28;20142;-86
2022/11/12 10:29:34;;;;;;;3.15;1.88;;;;;;;17.21;100.00;102891.56;20491947;28;20521;-84
2022/11/12 10:39:54;;;;;;;4.90;2.10;;;;;;;17.20;100.00;102872.81;20542067;28;20051;-87
2022/11/12 10:50:18;;;;;;;3.03;1.70;;;;;;;17.18;100.00;102864.81;20485646;28;20137;-88
2022/11/12 11:01:02;;;;;;;2.65;1.70;;;;;;;17.18;100.00;102851.34;20492542;28;20042;-89
2022/11/12 11:11:29;;;;;;;2.55;1.85;;;;;;;17.17;100.00;102849.63;20467632;28;20047;-87
2022/11/12 11:21:49;;;;;;;3.13;1.92;;;;;;;17.16;100.00;102833.56;20480684;28;20055;-89
2022/11/12 11:32:29;;;;;;;2.08;1.60;;;;;;;17.16;100.00;102839.81;20481651;28;20059;-87
2022/11/12 11:43:30;;;;;;;2.17;1.73;;;;;;;17.14;100.00;102833.63;20491587;28;20058;-87
2022/11/12 11:54:15;;;;;;;3.22;1.67;;;;;;;17.15;100.00;102829.16;20454841;28;20054;-88
2022/11/12 12:04:55;;;;;;;1.70;1.42;;;;;;;17.14;100.00;102830.94;20461932;28;20087;-87
2022/11/12 12:15:30;;;;;;;2.38;1.80;;;;;;;17.13;100.00;102826.53;20460792;28;20536;-87
2022/11/12 12:25:51;;;;;;;2.40;1.70;;;;;;;17.12;100.00;102819.41;20448071;28;20059;-86
2022/11/12 12:36:25;;;;;;;2.20;1.73;;;;;;;17.12;100.00;102816.72;20470813;28;20566;-86
2022/11/12 12:46:50;;;;;;;2.67;2.05;;;;;;;16.71;100.00;102747.16;20483120;28;20173;-88
2022/11/12 12:57:30;;;;;;;1.60;1.40;;;;;;;16.46;100.00;102708.19;20517735;28;20538;-85
2022/11/12 13:07:51;;;;;;;1.83;1.40;;;;;;;17.10;100.00;102800.66;20522703;28;20055;-86
2022/11/12 13:18:37;;;;;;;1.63;1.48;;;;;;;17.09;99.92;102784.59;20500108;28;20055;-86
2022/11/12 13:29:22;;;;;;;3.30;1.52;;;;;;;17.08;100.00;102783.72;20466674;28;20047;-86
2022/11/12 13:39:42;;;;;;;2.38;1.50;;;;;;;16.93;99.99;102761.19;20465681;28;20055;-87
2022/11/12 13:50:06;;;;;;;2.38;1.52;;;;;;;17.09;100.00;102779.22;20493547;28;20051;-85
2022/11/12 14:00:27;;;;;;;1.92;1.40;;;;;;;17.07;100.00;102781.13;20472438;28;20055;-85
2022/11/12 14:11:13;;;;;;;2.42;1.40;;;;;;;17.05;100.00;102770.44;20521071;28;20787;-87
2022/11/12 14:21:33;;;;;;;1.80;1.52;;;;;;;17.05;100.00;102762.38;20483205;28;20055;-87
2022/11/12 14:32:01;;;;;;;1.23;1.13;;;;;;;17.05;100.00;102750.72;20471109;28;20039;-90
2022/11/12 14:42:21;;;;;;;2.47;1.27;;;;;;;16.72;99.79;102704.06;20471753;28;20047;-94
2022/11/12 14:52:44;;;;;;;3.50;1.60;;;;;;;17.12;99.93;102740.50;20474341;28;20046;-92
2022/11/12 15:03:05;;;;;;;2.53;1.70;;;;;;;16.84;100.00;102672.94;20463496;28;20051;-91
2022/11/12 15:13:26;;;;;;;2.03;1.42;;;;;;;17.19;100.00;102721.22;20480064;28;20055;-90
2022/11/12 15:23:49;;;;;;;1.95;1.30;;;;;;;17.22;100.00;102712.97;20478076;28;20047;-87
2022/11/12 15:34:40;;;;;;;1.50;1.35;;;;;;;17.23;100.00;102700.38;20449501;28;20048;-88
2022/11/12 15:45:02;;;;;;;2.00;1.35;;;;;;;17.19;100.00;102694.28;20451059;28;20496;-86
2022/11/12 15:55:22;;;;;;;2.00;1.40;;;;;;;17.15;100.00;102675.75;20458038;28;20505;-91
2022/11/12 16:05:43;;;;;;;1.98;1.38;;;;;;;16.89;100.00;102638.56;20454370;28;20055;-90
2022/11/12 16:16:06;;;;;;;1.42;1.20;;;;;;;17.11;100.00;102680.41;20459362;28;20055;-91
2022/11/12 16:26:27;;;;;;;1.73;1.27;;;;;;;16.91;100.00;102657.31;20469735;28;20051;-90
2022/11/12 16:36:48;;;;;;;2.50;1.25;;;;;;;16.83;100.00;102633.53;20498958;28;20059;-89
2022/11/12 16:47:09;;;;;;;2.05;1.40;;;;;;;17.07;100.00;102679.75;20458165;28;20160;-89
2022/11/12 16:57:29;;;;;;;1.70;1.30;;;;;;;17.06;99.88;102691.47;20479100;28;20145;-90
2022/11/12 17:07:54;;;;;;;2.00;1.50;;;;;;;17.05;99.80;102667.31;20445821;28;20423;-87
2022/11/12 17:18:14;;;;;;;2.43;1.43;;;;;;;16.92;99.87;102653.66;20461793;28;20600;-85
2022/11/12 17:28:34;;;;;;;2.20;1.60;;;;;;;17.02;100.00;102665.69;20455617;28;20063;-90
2022/11/12 17:38:56;;;;;;;1.88;1.40;;;;;;;16.72;99.91;102619.81;20457513;28;20051;-89
2022/11/12 17:49:18;;;;;;;1.88;1.30;;;;;;;16.73;99.92;102618.84;20452828;28;20059;-87
2022/11/12 17:59:38;;;;;;;1.25;1.05;;;;;;;17.01;100.00;102684.59;20451635;28;20060;-88
2022/11/12 18:09:58;;;;;;;2.20;1.10;;;;;;;16.89;100.00;102668.16;20441198;28;20497;-86
2022/11/12 18:20:18;;;;;;;1.58;0.98;;;;;;;17.00;100.00;102672.09;20470033;28;20500;-87
2022/11/12 18:30:38;;;;;;;1.60;1.50;;;;;;;16.48;100.00;102606.81;20486179;28;20046;-87
2022/11/12 18:41:05;;;;;;;1.20;1.05;;;;;;;16.98;100.00;102663.25;20485523;28;20047;-88
2022/11/12 18:51:25;;;;;;;1.27;1.00;;;;;;;16.98;100.00;102657.88;20506594;28;20047;-85
2022/11/12 19:01:46;;;;;;;1.70;1.20;;;;;;;16.96;100.00;102644.44;20476718;28;20068;-86
2022/11/12 19:12:06;;;;;;;1.65;1.10;;;;;;;16.95;100.00;102648.97;20486612;28;20149;-88
2022/11/12 19:22:26;;;;;;;1.40;1.30;;;;;;;16.95;100.00;102659.75;20494741;28;20059;-89
2022/11/12 19:32:46;;;;;;;1.33;1.10;;;;;;;16.95;100.00;102659.75;20473290;28;20055;-90
2022/11/12 19:43:06;;;;;;;1.98;1.20;;;;;;;16.77;100.00;102628.47;20481434;28;20047;-91
2022/11/12 19:53:30;;;;;;;1.40;1.00;;;;;;;16.55;100.00;102583.13;20480400;28;20051;-90
2022/11/12 20:03:51;;;;;;;1.70;1.20;;;;;;;16.75;99.98;102611.56;20506088;28;20043;-91
2022/11/12 20:14:11;;;;;;;1.30;1.02;;;;;;;16.91;99.86;102641.16;20479872;28;20051;-92
2022/11/12 20:24:31;;;;;;;1.20;1.00;;;;;;;16.66;99.86;102597.69;20479062;28;20055;-90
2022/11/12 20:34:51;;;;;;;1.65;1.05;;;;;;;16.93;99.86;102637.44;20476534;28;20063;-90
2022/11/12 20:45:12;;;;;;;1.65;1.20;;;;;;;16.92;99.92;102627.63;20475842;28;20051;-92
2022/11/12 20:55:32;;;;;;;1.45;1.25;;;;;;;16.92;99.82;102624.94;20474795;28;20051;-92
2022/11/12 21:05:59;;;;;;;1.15;1.05;;;;;;;16.92;99.70;102610.63;20475389;28;20516;-92
2022/11/12 21:16:19;;;;;;;1.00;0.90;;;;;;;16.91;99.81;102603.50;20474386;28;20409;-91
2022/11/12 21:26:39;;;;;;;1.17;1.05;;;;;;;16.90;99.82;102602.66;20474891;28;20043;-91
2022/11/12 21:36:59;;;;;;;1.40;1.10;;;;;;;16.89;99.79;102608.97;20473469;28;20075;-92
2022/11/12 21:47:19;;;;;;;1.08;0.88;;;;;;;16.88;99.77;102596.50;20472896;28;20043;-90
2022/11/12 21:57:39;;;;;;;1.30;1.10;;;;;;;16.89;99.60;102594.66;20472918;28;20122;-91
2022/11/12 22:07:59;;;;;;;1.05;0.95;;;;;;;16.45;99.64;102531.72;20472364;28;20047;-91
2022/11/12 22:18:19;;;;;;;1.85;1.25;;;;;;;16.52;99.54;102550.06;20470561;28;20051;-92
2022/11/12 22:28:39;;;;;;;1.33;1.23;;;;;;;16.88;99.54;102599.19;20471497;28;20138;-92
2022/11/12 22:38:59;;;;;;;1.45;0.98;;;;;;;16.88;99.56;102590.22;20470705;28;20043;-92
2022/11/12 22:49:19;;;;;;;2.67;1.00;;;;;;;16.86;99.57;102576.88;20471598;28;20047;-91
2022/11/12 22:59:39;;;;;;;1.10;0.80;;;;;;;16.67;99.36;102515.22;20470512;28;20051;-92
2022/11/12 23:09:59;;;;;;;1.20;0.90;;;;;;;16.77;99.39;102539.72;20470018;28;20051;-92
2022/11/12 23:20:19;;;;;;;0.98;0.90;;;;;;;16.54;99.46;102501.59;20484825;28;20052;-92
2022/11/12 23:30:38;;;;;;;1.08;0.93;;;;;;;16.85;99.40;102559.00;20481838;28;20043;-90
2022/11/12 23:40:59;;;;;;;1.65;1.00;;;;;;;16.84;99.24;102565.34;20482112;28;20415;-91
2022/11/12 23:51:20;;;;;;;0.95;0.90;;;;;;;16.85;99.60;102571.56;20482423;28;20047;-90
